createdAt,value
2024-03-14T00:04:44.261Z,5.93
2024-03-14T00:07:11.551Z,6.90
2024-03-14T00:09:38.273Z,6.33
2024-03-14T00:12:06.134Z,6.43
2024-03-14T00:14:33.008Z,6.20
2024-03-14T00:16:59.745Z,6.33
2024-03-14T00:19:26.357Z,6.77
2024-03-14T00:21:52.981Z,6.53
2024-03-14T00:24:19.632Z,6.00
2024-03-14T00:26:46.302Z,6.27
2024-03-14T00:29:12.947Z,6.77
2024-03-14T00:31:39.952Z,6.70
2024-03-14T00:34:09.328Z,7.70
2024-03-14T00:36:39.025Z,7.20
2024-03-14T00:39:09.001Z,6.87
2024-03-14T00:41:35.684Z,8.20
2024-03-14T00:44:04.193Z,7.60
2024-03-14T00:46:36.782Z,7.70
2024-03-14T00:49:03.623Z,7.47
2024-03-14T00:51:30.394Z,7.83
2024-03-14T00:53:57.071Z,8.33
2024-03-14T00:56:26.099Z,7.67
2024-03-14T00:58:52.702Z,8.17
2024-03-14T01:01:19.583Z,8.37
2024-03-14T01:03:46.196Z,8.07
2024-03-14T01:06:12.978Z,8.90
2024-03-14T01:08:39.950Z,8.63
2024-03-14T01:11:06.982Z,8.97
2024-03-14T01:13:33.652Z,8.43
2024-03-14T01:16:00.498Z,9.10
2024-03-14T01:18:27.189Z,9.40
2024-03-14T01:20:53.856Z,9.37
2024-03-14T01:23:20.486Z,8.80
2024-03-14T01:25:47.133Z,10.10
2024-03-14T01:28:13.730Z,9.63
2024-03-14T01:30:43.517Z,9.20
2024-03-14T01:33:10.507Z,10.07
2024-03-14T01:35:37.227Z,10.17
2024-03-14T01:38:04.015Z,8.47
2024-03-14T01:40:30.692Z,9.67
2024-03-14T01:42:58.424Z,9.87
2024-03-14T01:45:25.648Z,9.83
2024-03-14T01:47:52.466Z,10.47
2024-03-14T01:50:19.186Z,10.47
2024-03-14T01:52:45.928Z,9.43
2024-03-14T01:55:14.524Z,9.87
2024-03-14T01:57:42.500Z,10.27
2024-03-14T02:00:12.537Z,9.20
2024-03-14T02:02:39.322Z,10.60
2024-03-14T02:05:47.263Z,9.93
2024-03-14T02:08:14.342Z,10.50
2024-03-14T02:13:12.586Z,9.93
2024-03-14T02:15:39.826Z,9.90
2024-03-14T02:18:06.921Z,10.47
2024-03-14T02:20:33.605Z,10.00
2024-03-14T02:23:00.333Z,10.20
2024-03-14T02:25:26.938Z,10.83
2024-03-14T02:27:53.595Z,11.07
2024-03-14T02:30:20.331Z,10.77
2024-03-14T02:32:49.154Z,10.97
2024-03-14T02:35:15.948Z,10.33
2024-03-14T02:37:42.573Z,11.40
2024-03-14T02:40:12.642Z,9.50
2024-03-14T02:42:39.371Z,11.70
2024-03-14T02:45:07.509Z,9.83
2024-03-14T02:47:34.213Z,10.70
2024-03-14T02:50:00.842Z,10.73
2024-03-14T02:52:27.685Z,10.83
2024-03-14T02:54:54.491Z,10.33
2024-03-14T02:57:21.154Z,10.70
2024-03-14T02:59:48.113Z,10.23
2024-03-14T03:02:16.683Z,10.13
2024-03-14T03:04:45.526Z,10.00
2024-03-14T03:07:13.277Z,10.30
2024-03-14T03:09:42.186Z,10.93
2024-03-14T03:12:09.197Z,10.97
2024-03-14T03:14:37.428Z,10.33
2024-03-14T03:17:06.487Z,9.97
2024-03-14T03:19:33.177Z,11.60
2024-03-14T03:21:59.944Z,11.40
2024-03-14T03:24:26.685Z,10.97
2024-03-14T03:26:53.416Z,11.70
2024-03-14T03:29:21.419Z,10.73
2024-03-14T03:31:48.073Z,12.27
2024-03-14T03:34:14.735Z,12.13
2024-03-14T03:36:42.749Z,11.70
2024-03-14T03:39:13.691Z,12.63
2024-03-14T03:41:40.907Z,11.70
2024-03-14T03:44:07.629Z,12.43
2024-03-14T03:46:36.312Z,12.40
2024-03-14T03:51:30.867Z,12.17
2024-03-14T03:53:58.102Z,12.90
2024-03-14T03:56:25.928Z,12.43
2024-03-14T03:58:53.140Z,13.57
2024-03-14T04:01:23.610Z,12.77
2024-03-14T04:03:52.208Z,13.27
2024-03-14T04:06:18.846Z,13.27
2024-03-14T04:08:48.825Z,13.43
2024-03-14T04:11:17.418Z,12.77
2024-03-14T04:13:44.593Z,12.57
2024-03-14T04:16:13.881Z,13.90
2024-03-14T04:18:40.912Z,12.57
2024-03-14T04:21:09.304Z,12.87
2024-03-14T04:23:36.887Z,13.43
2024-03-14T04:26:04.152Z,12.63
2024-03-14T04:28:30.953Z,14.43
2024-03-14T04:30:57.905Z,14.10
2024-03-14T04:33:24.801Z,13.93
2024-03-14T04:35:51.762Z,13.00
2024-03-14T04:38:19.818Z,13.57
2024-03-14T04:40:46.526Z,14.00
2024-03-14T04:43:14.680Z,14.20
2024-03-14T04:45:42.007Z,14.53
2024-03-14T04:48:09.016Z,13.83
2024-03-14T04:50:36.067Z,13.13
2024-03-14T04:53:02.870Z,13.67
2024-03-14T04:55:30.206Z,14.47
2024-03-14T04:57:56.837Z,14.17
2024-03-14T05:00:24.604Z,14.13
2024-03-14T05:02:53.332Z,13.97
2024-03-14T05:05:22.396Z,15.00
2024-03-14T05:07:49.983Z,14.63
2024-03-14T05:10:20.091Z,13.13
2024-03-14T05:12:47.713Z,15.23
2024-03-14T05:15:15.934Z,14.17
2024-03-14T05:17:43.200Z,14.70
2024-03-14T05:20:12.060Z,14.00
2024-03-14T05:22:39.786Z,15.37
2024-03-14T05:25:14.209Z,14.20
2024-03-14T05:27:45.342Z,14.13
2024-03-14T05:30:14.309Z,13.80
2024-03-14T05:32:41.493Z,13.10
2024-03-14T05:35:08.143Z,15.57
2024-03-14T05:37:34.772Z,15.27
2024-03-14T05:40:01.416Z,13.30
2024-03-14T05:42:28.108Z,14.93
2024-03-14T05:44:57.917Z,14.67
2024-03-14T05:47:27.988Z,14.77
2024-03-14T05:49:54.804Z,14.63
2024-03-14T05:52:21.443Z,14.20
2024-03-14T05:54:48.089Z,14.83
2024-03-14T05:57:16.156Z,14.23
2024-03-14T05:59:43.205Z,14.70
2024-03-14T06:02:09.906Z,15.27
2024-03-14T06:04:36.652Z,14.60
2024-03-14T06:07:03.568Z,14.43
2024-03-14T06:09:34.210Z,14.80
2024-03-14T06:12:01.574Z,14.17
2024-03-14T06:14:28.392Z,13.83
2024-03-14T06:16:55.171Z,14.20
2024-03-14T06:19:23.203Z,14.57
2024-03-14T06:21:51.519Z,14.87
2024-03-14T06:24:18.382Z,14.53
2024-03-14T06:26:46.517Z,15.27
2024-03-14T06:29:13.258Z,15.87
2024-03-14T06:31:39.988Z,15.00
2024-03-14T06:34:06.826Z,14.77
2024-03-14T06:36:33.709Z,14.27
2024-03-14T06:39:00.484Z,15.73
2024-03-14T06:41:27.144Z,14.60
2024-03-14T06:43:53.795Z,16.13
2024-03-14T06:46:24.794Z,16.03
2024-03-14T06:48:51.487Z,18.43
2024-03-14T06:51:18.225Z,15.37
2024-03-14T06:53:46.583Z,16.27
2024-03-14T06:56:15.306Z,17.33
2024-03-14T06:58:42.051Z,16.67
2024-03-14T07:01:09.704Z,17.13
2024-03-14T07:03:36.453Z,16.93
2024-03-14T07:06:03.396Z,18.10
2024-03-14T07:08:30.067Z,17.67
2024-03-14T07:10:56.753Z,16.67
2024-03-14T07:13:24.753Z,18.50
2024-03-14T07:15:51.391Z,18.83
2024-03-14T07:18:18.238Z,17.80
2024-03-14T07:20:46.015Z,17.60
2024-03-14T07:23:14.796Z,18.60
2024-03-14T07:25:42.986Z,15.57
2024-03-14T07:28:10.768Z,16.90
2024-03-14T07:30:37.593Z,16.70
2024-03-14T07:33:04.638Z,17.43
2024-03-14T07:35:31.868Z,17.10
2024-03-14T07:37:59.627Z,16.60
2024-03-14T07:40:33.954Z,15.90
2024-03-14T07:43:00.949Z,17.23
2024-03-14T07:45:27.771Z,18.43
2024-03-14T07:47:54.922Z,16.83
2024-03-14T07:50:24.155Z,16.17
2024-03-14T07:52:51.253Z,16.80
2024-03-14T07:55:18.538Z,16.60
2024-03-14T07:57:45.347Z,16.37
2024-03-14T08:00:16.492Z,16.33
2024-03-14T08:02:43.546Z,16.57
2024-03-14T08:05:10.318Z,16.40
2024-03-14T08:07:39.930Z,15.83
2024-03-14T08:10:09.488Z,15.43
2024-03-14T08:12:36.262Z,15.47
2024-03-14T08:15:18.498Z,16.77
2024-03-14T08:17:45.893Z,14.23
2024-03-14T08:20:16.999Z,15.23
2024-03-14T08:22:44.287Z,14.53
2024-03-14T08:25:17.212Z,14.80
2024-03-14T08:27:50.545Z,14.83
2024-03-14T08:30:19.161Z,13.77
2024-03-14T08:32:45.962Z,17.23
2024-03-14T08:35:15.687Z,14.93
2024-03-14T08:37:44.898Z,14.03
2024-03-14T08:40:13.235Z,14.97
2024-03-14T08:42:46.210Z,14.03
2024-03-14T08:45:15.832Z,13.90
2024-03-14T08:47:43.876Z,13.47
2024-03-14T08:50:16.212Z,14.33
2024-03-14T08:52:43.030Z,14.47
2024-03-14T08:55:24.895Z,14.33
2024-03-14T08:57:52.575Z,14.00
2024-03-14T09:00:23.204Z,12.43
2024-03-14T09:02:51.170Z,14.33
2024-03-14T09:05:18.501Z,14.07
2024-03-14T09:07:47.085Z,16.43
2024-03-14T09:10:29.282Z,13.13
2024-03-14T09:12:56.737Z,13.73
2024-03-14T09:15:25.307Z,14.33
2024-03-14T09:17:52.539Z,14.70
2024-03-14T09:20:22.704Z,13.40
2024-03-14T09:22:56.425Z,13.60
2024-03-14T09:25:24.575Z,13.67
2024-03-14T09:27:54.703Z,13.37
2024-03-14T09:30:23.601Z,13.63
2024-03-14T09:32:52.073Z,13.47
2024-03-14T09:35:27.080Z,12.17
2024-03-14T09:37:58.443Z,13.37
2024-03-14T09:40:25.579Z,14.33
2024-03-14T09:43:00.675Z,13.13
2024-03-14T09:45:28.355Z,13.23
2024-03-14T09:47:58.767Z,14.33
2024-03-14T09:50:28.082Z,12.63
2024-03-14T09:52:56.043Z,11.83
2024-03-14T09:55:29.676Z,11.47
2024-03-14T09:57:57.236Z,12.17
2024-03-14T10:00:27.159Z,12.00
2024-03-14T10:02:54.522Z,11.53
2024-03-14T10:05:22.885Z,11.07
2024-03-14T10:07:50.807Z,10.10
2024-03-14T10:10:18.005Z,10.63
2024-03-14T10:12:55.707Z,10.33
2024-03-14T10:15:23.224Z,10.20
2024-03-14T10:17:52.506Z,10.07
2024-03-14T10:20:19.770Z,10.20
2024-03-14T10:22:49.671Z,11.10
2024-03-14T10:25:40.206Z,10.23
2024-03-14T10:28:19.032Z,10.53
2024-03-14T10:30:53.130Z,10.83
2024-03-14T10:33:21.633Z,9.60
2024-03-14T10:35:48.340Z,10.50
2024-03-14T10:38:21.041Z,8.43
2024-03-14T10:40:49.431Z,9.10
2024-03-14T10:43:18.542Z,8.90
2024-03-14T10:45:45.290Z,9.00
2024-03-14T10:48:12.707Z,9.07
2024-03-14T10:50:39.946Z,7.90
2024-03-14T10:53:07.620Z,8.40
2024-03-14T10:55:35.570Z,8.90
2024-03-14T10:58:06.459Z,8.30
2024-03-14T11:00:35.680Z,8.80
2024-03-14T11:03:04.535Z,9.50
2024-03-14T11:05:32.276Z,9.73
2024-03-14T11:08:01.772Z,8.90
2024-03-14T11:10:30.306Z,9.07
2024-03-14T11:13:12.432Z,8.73
2024-03-14T11:15:40.420Z,8.30
2024-03-14T11:18:14.156Z,7.30
2024-03-14T11:20:52.893Z,6.67
2024-03-14T11:23:26.003Z,7.33
2024-03-14T11:25:57.579Z,7.87
2024-03-14T11:28:25.714Z,6.63
2024-03-14T11:30:54.107Z,6.43
2024-03-14T11:33:21.148Z,6.30
2024-03-14T11:35:49.388Z,6.47
2024-03-14T11:38:20.066Z,6.50
2024-03-14T11:40:47.576Z,5.73
2024-03-14T11:43:21.762Z,6.00
2024-03-14T11:45:58.564Z,6.57
2024-03-14T11:48:26.718Z,7.10
2024-03-14T11:50:59.344Z,5.40
2024-03-14T11:53:26.890Z,6.10
2024-03-14T11:55:59.040Z,5.70
2024-03-14T11:58:34.971Z,5.87
2024-03-14T12:01:02.039Z,6.07
2024-03-14T12:03:28.893Z,6.23
2024-03-14T12:05:59.080Z,6.67
2024-03-14T12:08:26.116Z,7.53
2024-03-14T12:10:56.579Z,6.90
2024-03-14T12:13:28.217Z,6.70
2024-03-14T12:15:59.202Z,6.50
2024-03-14T12:18:25.948Z,6.90
2024-03-14T12:20:54.967Z,6.33
2024-03-14T12:23:23.594Z,7.20
2024-03-14T12:25:55.962Z,6.30
2024-03-14T12:28:23.148Z,5.97
2024-03-14T12:30:59.382Z,6.37
2024-03-14T12:33:28.814Z,5.40
2024-03-14T12:35:56.366Z,5.83
2024-03-14T12:38:23.846Z,5.53
2024-03-14T12:40:54.260Z,9.37
2024-03-14T12:43:22.110Z,5.07
2024-03-14T12:45:50.713Z,5.23
2024-03-14T12:48:19.353Z,5.37
2024-03-14T12:50:47.380Z,4.90
2024-03-14T12:53:16.612Z,4.67
2024-03-14T12:55:51.714Z,4.77
2024-03-14T12:58:23.337Z,5.90
2024-03-14T13:00:53.597Z,5.90
2024-03-14T13:03:23.586Z,5.70
2024-03-14T13:06:00.698Z,5.97
2024-03-14T13:08:29.481Z,6.50
2024-03-14T13:11:07.744Z,6.00
2024-03-14T13:13:34.758Z,6.03
2024-03-14T13:16:30.620Z,6.83
2024-03-14T13:18:57.504Z,6.37
2024-03-14T13:21:26.909Z,7.17
2024-03-14T13:23:54.595Z,5.83
2024-03-14T13:26:24.455Z,6.67
2024-03-14T13:28:53.154Z,6.83
2024-03-14T13:31:21.799Z,5.50
2024-03-14T13:33:48.566Z,5.43
2024-03-14T13:36:17.553Z,6.03
2024-03-14T13:38:44.886Z,5.90
2024-03-14T13:41:13.989Z,6.20
2024-03-14T13:43:41.037Z,5.57
2024-03-14T13:46:09.320Z,5.73
2024-03-14T13:48:36.185Z,6.23
2024-03-14T13:51:04.149Z,6.50
2024-03-14T13:53:33.146Z,5.40
2024-03-14T13:56:01.078Z,5.90
